createdAt,value
2022-11-20T01:30:17.286Z,97642.00
2022-11-20T01:32:58.653Z,97639.00
2022-11-20T01:35:33.823Z,97642.00
2022-11-20T01:38:08.438Z,97638.00
2022-11-20T01:40:47.609Z,97653.00
2022-11-20T01:43:27.590Z,97635.00
2022-11-20T01:46:19.632Z,97638.00
2022-11-20T01:49:01.939Z,97646.00
2022-11-20T01:51:44.659Z,97621.00
2022-11-20T01:55:10.219Z,97634.00
2022-11-20T01:58:09.292Z,97642.00
2022-11-20T02:00:46.043Z,97627.00
2022-11-20T02:03:47.321Z,97628.00
2022-11-20T02:06:31.960Z,97628.00
2022-11-20T02:09:17.368Z,97632.00
2022-11-20T02:12:45.205Z,97636.00
2022-11-20T02:32:05.783Z,97628.00
2022-11-20T02:35:12.043Z,97630.00
2022-11-20T02:37:57.116Z,97630.00
2022-11-20T02:40:32.031Z,97631.00
2022-11-20T02:43:16.071Z,97628.00
2022-11-20T03:16:47.492Z,97621.00
2022-11-20T03:19:40.279Z,97628.00
2022-11-20T03:22:39.411Z,97634.00
2022-11-20T03:25:16.105Z,97646.00
2022-11-20T03:28:09.465Z,97641.00
2022-11-20T04:03:37.452Z,97636.00
2022-11-20T04:06:30.272Z,97642.00
2022-11-20T04:09:16.944Z,97647.00
2022-11-20T04:12:10.823Z,97629.00
2022-11-20T04:14:52.185Z,97632.00
2022-11-20T04:17:27.273Z,97624.00
2022-11-20T04:20:18.254Z,97614.00
2022-11-20T04:23:27.347Z,97617.00
2022-11-20T04:26:08.914Z,97624.00
2022-11-20T04:28:43.654Z,97626.00
2022-11-20T04:46:41.569Z,97617.00
2022-11-20T04:49:16.914Z,97611.00
2022-11-20T04:51:51.840Z,97620.00
2022-11-20T04:58:52.436Z,97615.00
2022-11-20T05:01:59.564Z,97613.00
2022-11-20T05:04:34.051Z,97617.00
2022-11-20T05:07:39.458Z,97610.00
2022-11-20T05:10:14.297Z,97598.00
2022-11-20T05:12:52.156Z,97619.00
2022-11-20T05:15:40.006Z,97630.00
2022-11-20T05:18:41.957Z,97611.00
2022-11-20T05:22:21.427Z,97617.00
2022-11-20T05:25:21.502Z,97611.00
2022-11-20T05:28:34.015Z,97624.00
2022-11-20T05:31:09.712Z,97617.00
2022-11-20T05:34:28.879Z,97615.00
2022-11-20T05:37:03.646Z,97624.00
2022-11-20T05:39:40.302Z,97619.00
2022-11-20T05:42:33.697Z,97610.00
2022-11-20T05:45:09.934Z,97624.00
2022-11-20T05:48:01.595Z,97619.00
2022-11-20T05:50:38.301Z,97598.00
2022-11-20T05:53:28.390Z,97600.00
2022-11-20T05:56:13.614Z,97594.00
2022-11-20T05:59:23.724Z,97620.00
2022-11-20T06:01:58.392Z,97626.00
2022-11-20T06:49:23.631Z,97627.00
2022-11-20T06:52:09.903Z,97634.00
2022-11-20T07:06:06.949Z,97647.00
2022-11-20T07:08:46.000Z,97623.00
2022-11-20T07:11:57.393Z,97632.00
2022-11-20T07:14:32.032Z,97626.00
2022-11-20T07:17:39.901Z,97649.00
2022-11-20T07:23:04.399Z,97635.00
2022-11-20T07:25:38.828Z,97652.00
2022-11-20T07:28:13.272Z,97650.00
2022-11-20T07:31:00.397Z,97641.00
2022-11-20T07:33:35.793Z,97640.00
2022-11-20T07:50:05.720Z,97666.00
2022-11-20T07:53:05.070Z,97638.00
2022-11-20T07:55:40.374Z,97632.00
2022-11-20T07:58:16.153Z,97641.00
2022-11-20T08:01:07.936Z,97654.00
2022-11-20T08:03:58.442Z,97656.00
2022-11-20T08:12:21.581Z,97659.00
2022-11-20T08:15:34.265Z,97657.00
2022-11-20T08:18:32.693Z,97674.00
2022-11-20T08:37:56.474Z,97677.00
2022-11-20T08:40:31.600Z,97695.00
2022-11-20T08:43:28.529Z,97683.00
2022-11-20T08:46:42.159Z,97670.00
2022-11-20T08:52:27.792Z,97698.00
2022-11-20T08:55:54.611Z,97687.00
2022-11-20T09:00:04.497Z,97699.00
2022-11-20T09:02:31.062Z,97697.00
2022-11-20T09:05:09.097Z,97697.00
2022-11-20T09:38:26.099Z,97719.00
2022-11-20T09:41:07.903Z,97695.00
2022-11-20T09:43:57.379Z,97711.00
2022-11-20T09:46:45.422Z,97706.00
2022-11-20T09:49:40.500Z,97718.00
2022-11-20T10:09:09.216Z,97732.00
2022-11-20T10:11:53.394Z,97732.00
2022-11-20T10:14:39.030Z,97731.00
2022-11-20T10:17:26.679Z,97722.00
2022-11-20T10:20:18.825Z,97734.00
2022-11-20T10:23:25.439Z,97726.00
2022-11-20T10:26:06.359Z,97730.00
2022-11-20T10:29:01.435Z,97714.00
2022-11-20T10:31:43.571Z,97725.00
2022-11-20T10:47:29.195Z,97728.00
2022-11-20T10:50:08.062Z,97718.00
2022-11-20T10:57:34.496Z,97684.00
2022-11-20T11:14:10.854Z,97709.00
2022-11-20T11:25:29.061Z,97686.00
2022-11-20T11:36:25.814Z,97684.00
2022-11-20T11:39:35.242Z,97674.00
2022-11-20T11:42:15.746Z,97667.00
2022-11-20T11:45:06.694Z,97674.00
2022-11-20T11:47:54.643Z,97673.00
2022-11-20T12:10:21.751Z,97654.00
2022-11-20T12:14:14.108Z,97647.00
2022-11-20T12:17:06.983Z,97647.00
2022-11-20T12:41:37.223Z,97630.00
2022-11-20T12:49:20.084Z,97620.00
2022-11-20T13:02:28.396Z,97620.00
2022-11-20T13:05:34.450Z,97634.00
2022-11-20T13:20:08.350Z,97636.00
2022-11-20T13:22:48.242Z,97629.00
2022-11-20T13:26:09.733Z,97632.00
2022-11-20T13:29:12.015Z,97628.00
2022-11-20T13:36:37.821Z,97619.00
2022-11-20T13:45:14.025Z,97610.00
2022-11-20T13:47:54.932Z,97614.00
2022-11-20T14:17:27.688Z,97595.00
2022-11-20T14:20:19.338Z,97589.00
2022-11-20T14:25:45.834Z,97590.00
2022-11-20T14:34:42.658Z,97587.00
2022-11-20T14:37:26.912Z,97585.00
2022-11-20T14:40:01.911Z,97577.00
2022-11-20T14:50:55.694Z,97583.00
2022-11-20T14:54:19.873Z,97580.00
2022-11-20T14:56:58.492Z,97577.00
2022-11-20T14:59:37.352Z,97576.00
2022-11-20T15:02:33.297Z,97552.00
2022-11-20T15:05:10.916Z,97556.00
2022-11-20T15:07:51.583Z,97560.00
2022-11-20T15:10:48.706Z,97560.00
2022-11-20T15:13:30.315Z,97539.00
2022-11-20T15:28:23.525Z,97538.00
2022-11-20T15:34:18.444Z,97528.00
2022-11-20T15:42:22.269Z,97526.00
2022-11-20T15:45:04.818Z,97521.00
2022-11-20T15:50:23.872Z,97510.00
2022-11-20T15:53:00.035Z,97502.00
2022-11-20T15:58:23.996Z,97499.00
2022-11-20T16:01:39.622Z,97495.00
2022-11-20T16:04:46.014Z,97473.00
2022-11-20T16:07:48.546Z,97457.00
2022-11-20T16:13:59.526Z,97498.00
2022-11-20T16:17:07.410Z,97499.00
2022-11-20T16:29:14.378Z,97493.00
2022-11-20T16:31:59.810Z,97476.00
2022-11-20T16:39:01.459Z,97483.00
2022-11-20T16:41:50.785Z,97486.00
2022-11-20T16:44:31.921Z,97468.00
2022-11-20T16:47:10.742Z,97460.00
2022-11-20T16:57:16.360Z,97466.00
2022-11-20T17:07:59.306Z,97456.00
2022-11-20T17:10:34.994Z,97458.00
2022-11-20T17:13:28.068Z,97464.00
2022-11-20T17:16:06.325Z,97451.00
2022-11-20T17:18:40.960Z,97453.00
2022-11-20T17:21:19.211Z,97445.00
2022-11-20T17:24:26.396Z,97442.00
2022-11-20T17:27:22.760Z,97434.00
2022-11-20T17:30:12.559Z,97450.00
2022-11-20T17:33:10.238Z,97454.00
2022-11-20T17:35:44.583Z,97429.00
2022-11-20T17:38:28.635Z,97463.00
2022-11-20T17:41:20.711Z,97445.00
2022-11-20T17:51:31.577Z,97422.00
2022-11-20T17:54:09.024Z,97443.00
2022-11-20T17:57:02.517Z,97436.00
2022-11-20T17:59:53.336Z,97409.00
2022-11-20T18:02:29.145Z,97417.00
2022-11-20T18:05:10.910Z,97417.00
2022-11-20T18:07:46.728Z,97430.00
2022-11-20T18:10:31.196Z,97423.00
2022-11-20T18:13:19.825Z,97420.00
2022-11-20T18:16:08.816Z,97406.00
2022-11-20T18:19:04.202Z,97427.00
2022-11-20T18:21:52.729Z,97402.00
2022-11-20T18:24:36.298Z,97414.00
2022-11-20T18:30:17.955Z,97407.00
2022-11-20T18:41:49.304Z,97373.00
2022-11-20T19:15:22.417Z,97356.00
2022-11-20T19:18:04.225Z,97352.00
2022-11-20T19:20:39.065Z,97368.00
2022-11-20T19:23:13.481Z,97382.00
2022-11-20T19:26:37.100Z,97377.00
2022-11-20T19:29:16.553Z,97374.00
2022-11-20T19:32:00.663Z,97399.00
2022-11-20T19:42:15.947Z,97368.00
2022-11-20T20:17:19.304Z,97327.00
2022-11-20T20:20:30.872Z,97359.00
2022-11-20T20:23:11.219Z,97353.00
2022-11-20T20:37:28.156Z,97344.00
2022-11-20T20:55:34.479Z,97326.00
2022-11-20T21:02:04.697Z,97327.00
2022-11-20T21:11:08.864Z,97365.00
2022-11-20T21:13:45.373Z,97354.00
2022-11-20T21:23:15.258Z,97365.00
2022-11-20T21:33:18.867Z,97375.00
2022-11-20T21:36:12.803Z,97398.00
2022-11-20T21:43:00.150Z,97361.00
2022-11-20T21:49:50.705Z,97353.00
2022-11-20T21:53:43.263Z,97363.00
2022-11-20T21:56:38.791Z,97371.00
2022-11-20T22:03:41.347Z,97356.00
2022-11-20T22:07:27.234Z,97371.00
2022-11-20T22:10:59.760Z,97373.00
2022-11-20T22:22:32.134Z,97387.00
2022-11-20T22:29:25.461Z,97400.00
2022-11-20T22:40:03.522Z,97365.00
2022-11-20T23:01:57.293Z,97370.00
2022-11-20T23:05:24.985Z,97399.00
2022-11-20T23:08:17.504Z,97398.00
2022-11-20T23:11:02.621Z,97421.00
2022-11-20T23:14:00.583Z,97401.00
2022-11-20T23:16:41.469Z,97406.00
2022-11-20T23:19:29.949Z,97395.00
2022-11-20T23:22:08.182Z,97390.00
2022-11-20T23:25:23.505Z,97411.00
2022-11-20T23:28:32.261Z,97406.00
2022-11-20T23:31:08.112Z,97418.00
2022-11-20T23:33:48.943Z,97395.00
2022-11-20T23:36:58.647Z,97399.00
2022-11-20T23:39:58.053Z,97403.00
2022-11-20T23:43:16.467Z,97393.00
2022-11-20T23:45:52.995Z,97401.00
2022-11-20T23:56:55.218Z,97393.00
2022-11-20T23:59:35.762Z,97397.00
